Terminal Aerodrome Forecast
Issued by NWS Cleveland, OH

Home | Current Version | Previous Version | Graphics & Text | Print | Product List | Glossary Off
Versions: 1 2 3 4 5 6 7 8 9 10 11 12 13 14 15 16 17 18 19 20 21

000
FTUS41 KCLE 201700
TAFCAK
TAF
KCAK 201740Z 2018/2118 00000KT P6SM BKN025
     FM201930 VRB03KT P6SM BKN035
     FM210200 00000KT P6SM SCT250
     FM210700 00000KT 4SM BR SCT250
     FM210900 00000KT 1SM BR SCT250
     FM211400 00000KT P6SM SCT030=

USA.gov is the U.S. government's official web portal to all federal, state and local government web resources and services.